createdAt,value
2019-04-21T00:03:30.373Z,59.13
2019-04-21T00:08:50.824Z,57.96
2019-04-21T00:13:49.133Z,60.87
2019-04-21T00:18:54.875Z,60.15
2019-04-21T00:24:23.825Z,59.30
2019-04-21T00:34:21.748Z,60.08
2019-04-21T00:44:51.314Z,61.94
2019-04-21T00:49:59.114Z,61.49
2019-04-21T00:55:13.986Z,63.04
2019-04-21T01:00:11.641Z,63.31
2019-04-21T01:05:18.545Z,61.66
2019-04-21T01:10:14.983Z,61.20
2019-04-21T01:15:33.756Z,63.92
2019-04-21T01:20:17.264Z,63.06
2019-04-21T01:25:25.841Z,62.76
2019-04-21T01:30:42.913Z,63.95
2019-04-21T01:35:50.982Z,63.20
2019-04-21T01:40:52.727Z,63.32
2019-04-21T01:45:56.514Z,61.94
2019-04-21T01:51:01.529Z,61.58
2019-04-21T01:56:24.048Z,60.47
2019-04-21T02:01:37.203Z,59.57
2019-04-21T02:06:33.182Z,57.98
2019-04-21T02:11:44.337Z,58.02
2019-04-21T02:16:47.548Z,57.60
2019-04-21T02:21:49.195Z,61.78
2019-04-21T02:26:59.549Z,62.73
2019-04-21T02:32:24.387Z,59.97
2019-04-21T02:42:19.894Z,67.66
2019-04-21T02:47:38.916Z,63.90
2019-04-21T02:52:39.305Z,65.72
2019-04-21T02:57:43.513Z,67.04
2019-04-21T03:08:27.983Z,68.20
2019-04-21T03:13:21.692Z,71.31
2019-04-21T03:28:30.180Z,68.36
2019-04-21T03:43:43.826Z,72.03
2019-04-21T03:53:55.873Z,70.99
2019-04-21T04:09:48.292Z,70.17
2019-04-21T04:25:05.187Z,72.14
2019-04-21T04:30:09.670Z,68.29
2019-04-21T04:45:36.708Z,69.33
2019-04-21T04:50:45.330Z,73.24
2019-04-21T04:55:43.291Z,74.49
2019-04-21T05:00:45.996Z,74.85
2019-04-21T05:26:36.059Z,64.80
2019-04-21T05:32:07.904Z,62.79
2019-04-21T05:37:28.918Z,59.48
2019-04-21T05:42:29.327Z,56.66
2019-04-21T05:48:12.219Z,55.91
2019-04-21T05:53:15.038Z,54.38
2019-04-21T05:58:30.144Z,54.25
2019-04-21T06:03:23.876Z,52.17
2019-04-21T06:08:29.721Z,53.12
2019-04-21T06:13:40.383Z,52.30
2019-04-21T06:18:44.936Z,51.40
2019-04-21T06:23:42.236Z,51.23
2019-04-21T06:28:46.995Z,52.12
2019-04-21T06:33:48.917Z,51.34
2019-04-21T06:44:09.603Z,51.08
2019-04-21T06:49:02.790Z,50.24
2019-04-21T06:54:30.514Z,49.58
2019-04-21T06:59:13.501Z,48.43
2019-04-21T07:04:25.426Z,46.23
2019-04-21T07:09:48.346Z,48.53
2019-04-21T07:14:49.921Z,46.77
2019-04-21T07:19:40.964Z,47.82
2019-04-21T07:24:42.863Z,46.96
2019-04-21T07:29:55.636Z,45.25
2019-04-21T07:35:00.581Z,46.44
2019-04-21T07:39:55.607Z,47.72
2019-04-21T07:45:00.690Z,47.24
2019-04-21T07:50:22.736Z,45.73
2019-04-21T08:00:45.807Z,44.87
2019-04-21T08:05:59.200Z,42.90
2019-04-21T08:10:45.307Z,43.49
2019-04-21T08:15:50.985Z,42.67
2019-04-21T08:20:54.438Z,41.48
2019-04-21T08:26:06.131Z,41.00
2019-04-21T08:31:11.484Z,40.36
2019-04-21T08:36:20.759Z,38.57
2019-04-21T08:41:12.330Z,37.78
2019-04-21T08:46:23.878Z,37.62
2019-04-21T08:51:33.298Z,37.37
2019-04-21T08:57:02.492Z,38.35
2019-04-21T09:02:10.197Z,39.16
2019-04-21T09:07:29.343Z,39.73
2019-04-21T09:12:24.176Z,38.19
2019-04-21T09:17:24.867Z,38.54
2019-04-21T09:22:35.811Z,38.07
2019-04-21T09:27:36.647Z,38.22
2019-04-21T09:32:29.345Z,36.98
2019-04-21T09:37:41.883Z,34.40
2019-04-21T09:42:46.975Z,33.74
2019-04-21T09:47:50.210Z,32.70
2019-04-21T09:52:52.826Z,31.80
2019-04-21T09:57:55.718Z,31.53
2019-04-21T10:03:02.846Z,32.36
2019-04-21T10:08:01.720Z,32.81
2019-04-21T10:13:05.108Z,33.10
2019-04-21T10:18:13.031Z,33.25
2019-04-21T10:23:17.630Z,34.46
2019-04-21T10:28:21.283Z,35.59
2019-04-21T10:33:24.401Z,35.83
2019-04-21T10:38:36.575Z,37.58
2019-04-21T10:43:33.465Z,37.00
2019-04-21T10:48:38.242Z,38.08
2019-04-21T10:53:43.300Z,38.55
2019-04-21T10:58:48.147Z,38.76
2019-04-21T11:04:21.814Z,39.03
2019-04-21T11:09:22.042Z,38.55
2019-04-21T11:14:25.437Z,37.35
2019-04-21T11:19:28.809Z,38.73
2019-04-21T11:24:33.168Z,38.41
2019-04-21T11:29:37.172Z,38.46
2019-04-21T11:34:41.003Z,36.72
2019-04-21T11:39:52.137Z,37.14
2019-04-21T11:44:51.432Z,37.37
2019-04-21T11:49:54.993Z,36.96
2019-04-21T11:54:58.713Z,36.95
2019-04-21T12:00:02.225Z,36.56
2019-04-21T12:05:05.875Z,35.80
2019-04-21T12:10:09.329Z,35.84
2019-04-21T12:15:14.175Z,36.08
2019-04-21T12:20:18.816Z,37.04
2019-04-21T12:25:25.062Z,36.56
2019-04-21T12:30:33.528Z,35.04
2019-04-21T12:35:37.750Z,35.69
2019-04-21T12:40:42.275Z,36.00
2019-04-21T12:45:46.081Z,35.43
2019-04-21T12:50:49.913Z,33.38
2019-04-21T12:55:53.803Z,34.84
2019-04-21T13:00:57.270Z,33.30
2019-04-21T13:06:01.398Z,31.87
2019-04-21T13:11:06.417Z,32.12
2019-04-21T13:16:11.505Z,33.17
2019-04-21T13:21:16.020Z,33.34
2019-04-21T13:26:29.575Z,33.14
2019-04-21T13:31:24.606Z,32.77
2019-04-21T13:36:27.939Z,32.83
2019-04-21T13:41:42.846Z,31.88
2019-04-21T13:46:36.521Z,31.26
2019-04-21T13:51:39.766Z,32.39
2019-04-21T13:56:43.014Z,31.32
2019-04-21T14:01:47.792Z,30.77
2019-04-21T14:06:52.217Z,30.35
2019-04-21T14:11:57.048Z,30.56
2019-04-21T14:17:00.603Z,30.48
2019-04-21T14:22:03.819Z,30.73
2019-04-21T14:27:08.032Z,30.20
2019-04-21T14:32:11.496Z,32.37
2019-04-21T14:37:14.899Z,32.79
2019-04-21T14:42:18.420Z,32.34
2019-04-21T14:47:42.141Z,31.48
2019-04-21T14:52:48.506Z,31.14
2019-04-21T14:57:51.804Z,29.86
2019-04-21T15:02:55.905Z,29.74
2019-04-21T15:07:59.386Z,29.27
2019-04-21T15:13:03.543Z,28.42
2019-04-21T15:18:06.869Z,29.23
2019-04-21T15:23:10.492Z,29.40
2019-04-21T15:28:13.912Z,29.46
2019-04-21T15:33:18.225Z,31.19
2019-04-21T15:38:22.235Z,31.06
2019-04-21T15:43:26.592Z,31.29
2019-04-21T15:48:30.807Z,30.99
2019-04-21T15:53:34.842Z,31.33
2019-04-21T15:58:58.837Z,30.50
2019-04-21T16:04:02.889Z,30.72
2019-04-21T16:09:16.190Z,30.68
2019-04-21T16:14:14.602Z,31.14
2019-04-21T16:19:18.460Z,31.77
2019-04-21T16:24:23.309Z,31.70
2019-04-21T16:29:27.264Z,31.19
2019-04-21T16:34:42.801Z,31.36
2019-04-21T16:39:35.605Z,31.57
2019-04-21T16:44:38.956Z,31.35
2019-04-21T16:49:43.584Z,31.53
2019-04-21T16:54:50.011Z,30.56
2019-04-21T16:59:56.901Z,29.30
2019-04-21T17:05:00.454Z,28.99
2019-04-21T17:10:04.566Z,28.78
2019-04-21T17:15:24.326Z,28.66
2019-04-21T17:20:30.011Z,28.73
2019-04-21T17:25:21.669Z,29.72
2019-04-21T17:30:26.355Z,29.34
2019-04-21T17:35:31.162Z,29.15
2019-04-21T17:40:35.734Z,29.63
2019-04-21T17:45:39.613Z,30.20
2019-04-21T17:50:51.549Z,30.48
2019-04-21T17:56:19.426Z,31.97
2019-04-21T18:01:40.729Z,35.80
2019-04-21T18:06:36.918Z,37.12
2019-04-21T18:11:42.558Z,38.49
2019-04-21T18:16:53.437Z,41.58
2019-04-21T18:22:08.543Z,42.47
2019-04-21T18:27:13.528Z,42.93
2019-04-21T18:32:24.836Z,46.27
2019-04-21T18:37:47.692Z,46.48
2019-04-21T18:43:32.696Z,46.91
2019-04-21T18:48:30.329Z,44.96
2019-04-21T18:53:58.092Z,43.84
2019-04-21T18:58:54.231Z,44.19
2019-04-21T19:03:58.318Z,45.77
2019-04-21T19:09:19.971Z,48.91
2019-04-21T19:14:32.281Z,50.45
2019-04-21T19:24:41.219Z,51.50
2019-04-21T19:29:54.001Z,52.27
2019-04-21T19:34:37.816Z,52.39
2019-04-21T19:39:52.727Z,54.69
2019-04-21T19:44:59.329Z,53.29
2019-04-21T19:50:09.302Z,49.23
2019-04-21T19:54:54.993Z,53.80
2019-04-21T20:00:01.382Z,55.42
2019-04-21T20:05:09.542Z,56.22
2019-04-21T20:10:44.400Z,54.95
2019-04-21T20:15:51.028Z,52.39
2019-04-21T20:20:21.308Z,52.57
2019-04-21T20:25:25.618Z,52.58
2019-04-21T20:30:52.695Z,52.90
2019-04-21T20:36:11.957Z,53.11
2019-04-21T20:40:52.689Z,60.15
2019-04-21T20:46:03.704Z,57.87
2019-04-21T20:51:14.495Z,56.32
2019-04-21T20:56:09.008Z,54.91
2019-04-21T21:06:22.898Z,54.39
2019-04-21T21:11:29.406Z,53.65
2019-04-21T21:16:45.073Z,53.79
2019-04-21T21:21:34.497Z,53.96
2019-04-21T21:26:47.078Z,55.88
2019-04-21T21:31:50.668Z,54.35
2019-04-21T21:36:55.278Z,53.93
2019-04-21T21:41:49.800Z,54.70
2019-04-21T21:47:00.566Z,54.52
2019-04-21T21:52:06.057Z,54.57
2019-04-21T21:56:58.656Z,58.04
2019-04-21T22:02:03.580Z,56.41
2019-04-21T22:07:13.543Z,57.79
2019-04-21T22:12:12.751Z,58.68
2019-04-21T22:17:29.479Z,56.01
2019-04-21T22:22:36.557Z,55.73
2019-04-21T22:27:27.885Z,55.50
2019-04-21T22:32:33.153Z,57.15
2019-04-21T22:37:47.378Z,55.11
2019-04-21T22:42:53.624Z,55.28
2019-04-21T22:47:49.281Z,55.98
2019-04-21T22:52:58.293Z,58.13
2019-04-21T22:57:59.857Z,60.95
2019-04-21T23:03:09.752Z,56.84
2019-04-21T23:08:09.261Z,56.19
2019-04-21T23:13:18.281Z,55.35
2019-04-21T23:18:34.904Z,54.70
2019-04-21T23:23:44.332Z,53.69
2019-04-21T23:28:52.699Z,53.94
2019-04-21T23:33:34.564Z,54.47
2019-04-21T23:38:44.141Z,54.60
2019-04-21T23:43:44.889Z,54.76
2019-04-21T23:49:01.718Z,53.46
2019-04-21T23:53:53.347Z,52.21
2019-04-21T23:59:02.764Z,54.17
